createdAt,value
2023-08-15T00:01:06.271Z,22.71
2023-08-15T00:04:08.416Z,22.65
2023-08-15T00:07:10.987Z,22.61
2023-08-15T00:10:12.844Z,22.57
2023-08-15T00:13:15.611Z,22.62
2023-08-15T00:16:17.585Z,22.73
2023-08-15T00:19:19.484Z,22.99
2023-08-15T00:22:21.490Z,22.72
2023-08-15T00:25:23.495Z,22.62
2023-08-15T00:28:25.429Z,22.55
2023-08-15T00:31:27.425Z,22.46
2023-08-15T00:34:29.495Z,22.52
2023-08-15T00:37:32.782Z,22.51
2023-08-15T00:40:34.782Z,22.64
2023-08-15T00:43:37.135Z,22.51
2023-08-15T00:46:39.383Z,22.58
2023-08-15T00:53:34.072Z,22.41
2023-08-15T00:56:38.023Z,22.43
2023-08-15T00:59:42.826Z,22.48
2023-08-15T01:02:44.996Z,22.56
2023-08-15T01:05:48.374Z,22.26
2023-08-15T01:08:50.786Z,22.18
2023-08-15T01:12:17.812Z,22.21
2023-08-15T01:15:28.313Z,22.31
2023-08-15T01:18:40.418Z,21.63
2023-08-15T01:21:48.968Z,21.19
2023-08-15T01:24:53.630Z,21.12
2023-08-15T01:27:55.848Z,20.95
2023-08-15T01:31:08.118Z,20.68
2023-08-15T01:34:13.616Z,20.58
2023-08-15T01:37:37.341Z,20.68
2023-08-15T01:40:42.842Z,20.74
2023-08-15T01:43:45.737Z,20.67
2023-08-15T01:46:48.159Z,20.57
2023-08-15T01:49:50.121Z,20.60
2023-08-15T01:52:52.016Z,20.61
2023-08-15T01:55:54.800Z,20.55
2023-08-15T01:58:56.795Z,20.58
2023-08-15T02:01:58.867Z,20.62
2023-08-15T02:05:03.453Z,20.61
2023-08-15T02:08:05.868Z,20.50
2023-08-15T02:11:07.805Z,20.56
2023-08-15T02:14:09.738Z,20.40
2023-08-15T02:17:11.668Z,20.32
2023-08-15T02:20:14.125Z,20.26
2023-08-15T02:23:16.103Z,20.19
2023-08-15T02:26:17.924Z,20.13
2023-08-15T02:29:20.563Z,19.94
2023-08-15T02:32:22.560Z,19.86
2023-08-15T02:35:24.524Z,19.90
2023-08-15T02:38:26.456Z,19.81
2023-08-15T02:42:27.013Z,-140.13
2023-08-15T02:46:29.761Z,-140.13
2023-08-15T02:50:30.351Z,-140.13
2023-08-15T02:54:30.741Z,-140.13
2023-08-15T02:58:31.200Z,-140.13
2023-08-15T03:02:31.934Z,-140.13
2023-08-15T03:06:32.469Z,-140.13
2023-08-15T03:10:37.705Z,-140.13
2023-08-15T03:14:38.091Z,-140.13
2023-08-15T03:18:38.675Z,-140.13
2023-08-15T03:22:39.176Z,-140.13
2023-08-15T03:26:40.723Z,-140.13
2023-08-15T03:30:41.159Z,-140.13
2023-08-15T03:34:41.732Z,-140.13
2023-08-15T03:38:42.663Z,-140.13
2023-08-15T03:41:45.003Z,20.14
2023-08-15T03:44:46.832Z,20.14
2023-08-15T03:47:50.637Z,20.05
2023-08-15T03:50:55.862Z,20.06
2023-08-15T03:54:00.086Z,19.86
2023-08-15T03:57:02.447Z,19.88
2023-08-15T04:00:06.396Z,19.88
2023-08-15T04:03:16.637Z,20.07
2023-08-15T04:06:19.210Z,20.07
2023-08-15T04:09:22.523Z,20.09
2023-08-15T04:12:25.104Z,20.05
2023-08-15T04:15:26.953Z,20.18
2023-08-15T04:18:28.972Z,20.34
2023-08-15T04:21:32.171Z,20.68
2023-08-15T04:24:34.113Z,20.94
2023-08-15T04:27:39.413Z,21.23
2023-08-15T04:30:42.231Z,21.80
2023-08-15T04:33:44.086Z,22.19
2023-08-15T04:36:47.724Z,22.46
2023-08-15T04:39:50.099Z,21.96
2023-08-15T04:42:52.110Z,21.96
2023-08-15T04:45:54.083Z,22.27
2023-08-15T04:48:56.178Z,22.28
2023-08-15T04:51:58.119Z,21.88
2023-08-15T04:55:00.141Z,21.96
2023-08-15T04:58:50.267Z,22.13
2023-08-15T05:01:52.192Z,22.34
2023-08-15T05:04:54.073Z,21.58
2023-08-15T05:07:56.059Z,21.66
2023-08-15T05:10:58.084Z,22.19
2023-08-15T05:14:03.055Z,22.10
2023-08-15T05:17:05.084Z,22.58
2023-08-15T05:20:07.601Z,22.35
2023-08-15T05:23:09.550Z,22.60
2023-08-15T05:26:11.652Z,22.77
2023-08-15T05:29:13.639Z,22.50
2023-08-15T05:36:23.143Z,22.74
2023-08-15T05:39:25.051Z,22.76
2023-08-15T05:42:27.255Z,22.73
2023-08-15T05:45:30.578Z,22.66
2023-08-15T05:48:32.986Z,22.61
2023-08-15T05:51:34.859Z,22.57
2023-08-15T05:54:36.853Z,22.55
2023-08-15T05:57:38.776Z,22.75
2023-08-15T06:00:42.240Z,23.17
2023-08-15T06:03:52.751Z,23.72
2023-08-15T06:06:55.280Z,24.04
2023-08-15T06:09:57.318Z,24.16
2023-08-15T06:12:59.267Z,24.32
2023-08-15T06:16:01.267Z,24.13
2023-08-15T06:19:03.263Z,24.06
2023-08-15T06:22:07.723Z,24.02
2023-08-15T06:25:09.913Z,23.94
2023-08-15T06:28:11.928Z,24.09
2023-08-15T06:31:13.812Z,23.97
2023-08-15T06:34:15.709Z,24.06
2023-08-15T06:37:17.709Z,24.20
2023-08-15T06:40:19.534Z,24.00
2023-08-15T06:43:21.438Z,24.32
2023-08-15T06:46:23.792Z,24.21
2023-08-15T06:49:25.793Z,24.75
2023-08-15T06:52:28.316Z,25.06
2023-08-15T06:55:30.270Z,25.03
2023-08-15T06:58:32.152Z,25.20
2023-08-15T07:01:34.240Z,25.15
2023-08-15T07:04:41.372Z,25.42
2023-08-15T07:07:43.332Z,25.04
2023-08-15T07:10:45.693Z,25.30
2023-08-15T07:13:47.666Z,25.38
2023-08-15T07:16:50.901Z,25.45
2023-08-15T07:19:52.874Z,25.74
2023-08-15T07:22:56.391Z,25.72
2023-08-15T07:25:58.504Z,25.74
2023-08-15T07:29:00.553Z,25.83
2023-08-15T07:32:02.769Z,25.76
2023-08-15T07:35:08.900Z,26.08
2023-08-15T07:38:10.867Z,26.28
2023-08-15T07:41:51.393Z,26.30
2023-08-15T07:44:53.514Z,26.01
2023-08-15T07:47:57.447Z,26.19
2023-08-15T07:50:59.901Z,26.37
2023-08-15T07:54:01.769Z,26.11
2023-08-15T07:57:03.787Z,26.37
2023-08-15T08:00:08.086Z,26.43
2023-08-15T08:03:15.651Z,26.13
2023-08-15T08:09:22.500Z,26.79
2023-08-15T08:12:24.472Z,26.79
2023-08-15T08:15:27.810Z,27.22
2023-08-15T08:18:29.741Z,27.47
2023-08-15T08:21:31.649Z,27.68
2023-08-15T08:24:35.931Z,27.55
2023-08-15T08:27:37.827Z,27.51
2023-08-15T08:30:39.933Z,27.71
2023-08-15T08:33:41.910Z,27.99
2023-08-15T08:36:44.477Z,27.80
2023-08-15T08:39:46.385Z,27.65
2023-08-15T08:42:48.459Z,27.86
2023-08-15T08:45:55.723Z,27.93
2023-08-15T08:49:01.496Z,27.74
2023-08-15T08:52:05.133Z,27.75
2023-08-15T08:55:07.422Z,27.99
2023-08-15T08:58:12.693Z,28.18
2023-08-15T09:01:15.127Z,27.84
2023-08-15T09:04:21.875Z,28.21
2023-08-15T09:07:23.969Z,28.47
2023-08-15T09:10:26.218Z,28.57
2023-08-15T09:13:28.230Z,28.87
2023-08-15T09:16:31.357Z,28.75
2023-08-15T09:19:40.372Z,29.03
2023-08-15T09:22:46.402Z,29.30
2023-08-15T09:25:50.060Z,29.24
2023-08-15T09:28:52.259Z,29.48
2023-08-15T09:31:54.140Z,29.56
2023-08-15T09:34:56.101Z,29.40
2023-08-15T09:37:58.046Z,29.24
2023-08-15T09:41:01.255Z,29.16
2023-08-15T09:44:03.329Z,29.61
2023-08-15T09:47:07.731Z,29.86
2023-08-15T09:50:12.348Z,29.78
2023-08-15T09:53:15.655Z,29.89
2023-08-15T09:56:19.222Z,29.87
2023-08-15T09:59:21.783Z,29.69
2023-08-15T10:02:24.949Z,29.93
2023-08-15T10:05:32.539Z,30.16
2023-08-15T10:08:39.614Z,29.90
2023-08-15T10:11:45.978Z,30.01
2023-08-15T10:14:48.924Z,29.91
2023-08-15T10:17:52.108Z,29.74
2023-08-15T10:20:55.185Z,29.98
2023-08-15T10:24:04.131Z,29.80
2023-08-15T10:27:07.346Z,30.21
2023-08-15T10:30:10.279Z,30.08
2023-08-15T10:33:12.204Z,30.05
2023-08-15T10:36:14.145Z,30.18
2023-08-15T10:39:16.424Z,30.16
2023-08-15T10:42:18.394Z,30.34
2023-08-15T10:45:21.100Z,30.42
2023-08-15T10:51:59.320Z,30.39
2023-08-15T10:55:01.652Z,30.27
2023-08-15T10:58:06.150Z,30.13
2023-08-15T11:01:08.365Z,29.84
2023-08-15T11:04:15.750Z,30.12
2023-08-15T11:07:27.662Z,30.00
2023-08-15T11:10:29.662Z,29.92
2023-08-15T11:13:46.791Z,29.43
2023-08-15T11:16:50.152Z,29.94
2023-08-15T11:19:52.492Z,30.08
2023-08-15T11:22:58.584Z,30.28
2023-08-15T11:26:05.248Z,30.22
2023-08-15T11:29:07.229Z,30.38
2023-08-15T11:32:10.133Z,29.97
2023-08-15T11:35:13.063Z,30.16
2023-08-15T11:38:18.922Z,30.06
2023-08-15T11:41:21.045Z,30.22
2023-08-15T11:44:23.242Z,30.65
2023-08-15T11:47:25.325Z,30.74
2023-08-15T11:50:41.969Z,30.79
2023-08-15T11:53:51.208Z,30.64
2023-08-15T11:56:54.608Z,30.70
2023-08-15T11:59:56.673Z,30.50
2023-08-15T12:02:59.152Z,30.68
2023-08-15T12:06:12.730Z,30.67
2023-08-15T12:09:14.955Z,30.65
2023-08-15T12:12:21.253Z,30.81
2023-08-15T12:15:23.802Z,30.86
2023-08-15T12:18:25.719Z,30.77
2023-08-15T12:21:27.660Z,30.57
2023-08-15T12:24:29.642Z,30.52
2023-08-15T12:27:31.564Z,30.62
2023-08-15T12:30:34.042Z,30.36
2023-08-15T12:33:46.713Z,30.60
2023-08-15T12:36:49.501Z,30.38
2023-08-15T12:39:51.449Z,30.48
2023-08-15T12:42:53.640Z,30.49
2023-08-15T12:45:56.022Z,30.31
2023-08-15T13:09:22.588Z,30.29
2023-08-15T13:12:24.807Z,30.05
2023-08-15T13:15:27.069Z,30.22
2023-08-15T13:18:29.025Z,30.41
2023-08-15T13:22:05.454Z,30.57
2023-08-15T13:25:07.983Z,30.54
2023-08-15T13:28:09.835Z,30.60
2023-08-15T13:31:11.860Z,30.56
2023-08-15T13:34:13.703Z,30.60
2023-08-15T13:37:15.568Z,30.62
2023-08-15T13:40:17.564Z,30.67
2023-08-15T13:43:19.556Z,30.62
2023-08-15T13:46:21.459Z,30.53
2023-08-15T13:49:23.510Z,30.59
2023-08-15T13:52:25.360Z,30.76
2023-08-15T13:55:27.483Z,30.73
2023-08-15T13:58:30.131Z,30.77
2023-08-15T14:01:33.543Z,30.68
2023-08-15T14:04:35.538Z,30.52
2023-08-15T14:07:37.507Z,30.64
2023-08-15T14:10:39.937Z,30.39
2023-08-15T14:13:43.439Z,30.35
2023-08-15T14:16:45.405Z,30.34
2023-08-15T14:19:47.499Z,30.24
2023-08-15T14:22:49.413Z,30.26
2023-08-15T14:25:51.690Z,30.26
2023-08-15T14:28:55.694Z,30.51
2023-08-15T14:31:57.555Z,30.78
2023-08-15T14:34:59.701Z,30.82
2023-08-15T14:38:03.930Z,30.96
2023-08-15T14:41:06.606Z,30.85
2023-08-15T14:44:08.518Z,30.85
2023-08-15T14:47:10.403Z,30.72
2023-08-15T14:50:12.507Z,30.73
2023-08-15T14:53:14.494Z,30.87
2023-08-15T14:56:18.427Z,30.78
2023-08-15T14:59:20.660Z,30.78
2023-08-15T15:02:24.941Z,30.84
2023-08-15T15:05:27.288Z,30.90
2023-08-15T15:08:29.178Z,30.90
2023-08-15T15:11:31.134Z,30.64
2023-08-15T15:14:33.815Z,30.62
2023-08-15T15:17:36.071Z,30.65
2023-08-15T15:20:38.055Z,30.63
2023-08-15T15:23:40.026Z,30.44
2023-08-15T15:26:41.934Z,30.28
2023-08-15T15:29:44.233Z,30.19
2023-08-15T15:32:46.203Z,30.29
2023-08-15T15:35:48.388Z,30.12
2023-08-15T15:38:52.889Z,30.12
2023-08-15T15:41:56.458Z,30.02
2023-08-15T15:44:58.447Z,30.02
2023-08-15T15:48:00.500Z,29.96
2023-08-15T15:51:12.456Z,30.01
2023-08-15T15:54:14.416Z,29.96
2023-08-15T15:57:17.581Z,29.82
2023-08-15T16:00:21.775Z,29.55
2023-08-15T16:03:23.998Z,29.47
2023-08-15T16:06:26.007Z,29.49
2023-08-15T16:09:28.028Z,29.40
2023-08-15T16:12:29.904Z,29.38
2023-08-15T16:15:32.055Z,29.23
2023-08-15T16:18:34.190Z,29.19
2023-08-15T16:21:36.912Z,29.05
2023-08-15T16:24:38.886Z,28.96
2023-08-15T16:27:40.763Z,28.94
2023-08-15T16:30:42.676Z,28.87
2023-08-15T16:33:44.754Z,28.76
2023-08-15T16:36:47.799Z,28.69
2023-08-15T16:39:49.980Z,28.64
2023-08-15T16:43:12.498Z,28.49
2023-08-15T16:46:14.711Z,28.32
2023-08-15T16:49:16.633Z,28.13
2023-08-15T16:52:18.616Z,28.00
2023-08-15T16:55:20.502Z,27.91
2023-08-15T16:58:22.401Z,27.83
2023-08-15T17:01:24.539Z,27.69
2023-08-15T17:04:26.413Z,27.65
2023-08-15T17:07:29.525Z,27.54
2023-08-15T17:10:31.743Z,27.54
2023-08-15T17:13:33.704Z,27.50
2023-08-15T17:16:35.779Z,27.35
2023-08-15T17:19:37.760Z,27.34
2023-08-15T17:22:39.662Z,27.31
2023-08-15T17:25:41.777Z,27.25
2023-08-15T17:32:53.033Z,27.20
2023-08-15T17:35:54.959Z,26.96
2023-08-15T17:38:56.861Z,26.83
2023-08-15T17:41:59.418Z,26.85
2023-08-15T17:45:01.470Z,26.90
2023-08-15T17:48:03.733Z,26.76
2023-08-15T17:51:05.882Z,26.52
2023-08-15T17:54:09.940Z,26.53
2023-08-15T17:57:11.798Z,26.63
2023-08-15T18:00:14.262Z,26.75
2023-08-15T18:03:16.395Z,26.83
2023-08-15T18:06:18.632Z,26.98
2023-08-15T18:09:23.769Z,26.91
2023-08-15T18:12:30.066Z,26.77
2023-08-15T18:15:32.021Z,26.74
2023-08-15T18:18:34.011Z,26.59
2023-08-15T18:21:35.959Z,26.45
2023-08-15T18:24:37.792Z,26.31
2023-08-15T18:27:39.633Z,26.04
2023-08-15T18:30:41.574Z,25.80
2023-08-15T18:33:43.483Z,25.67
2023-08-15T18:36:45.392Z,25.66
2023-08-15T18:39:47.253Z,25.52
2023-08-15T18:42:49.173Z,25.48
2023-08-15T18:45:51.407Z,25.45
2023-08-15T18:48:53.550Z,25.43
2023-08-15T18:51:55.560Z,25.40
2023-08-15T18:54:57.845Z,25.26
2023-08-15T18:57:59.837Z,25.09
2023-08-15T19:01:01.790Z,25.05
2023-08-15T19:04:04.366Z,25.02
2023-08-15T19:07:06.394Z,25.01
2023-08-15T19:10:08.817Z,24.93
2023-08-15T19:13:12.689Z,24.85
2023-08-15T19:16:14.702Z,24.78
2023-08-15T19:39:47.362Z,24.76
2023-08-15T19:42:49.404Z,24.77
2023-08-15T19:45:51.614Z,24.71
2023-08-15T19:48:53.640Z,24.69
2023-08-15T19:51:55.504Z,24.60
2023-08-15T19:54:57.695Z,24.69
2023-08-15T19:57:59.515Z,24.68
2023-08-15T20:01:01.487Z,24.64
2023-08-15T20:04:03.517Z,24.90
2023-08-15T20:07:05.458Z,24.90
2023-08-15T20:10:12.504Z,24.75
2023-08-15T20:13:14.846Z,24.65
2023-08-15T20:16:16.948Z,24.60
2023-08-15T20:19:20.124Z,24.58
2023-08-15T20:22:22.469Z,24.54
2023-08-15T20:25:25.832Z,24.50
2023-08-15T20:28:35.469Z,24.39
2023-08-15T20:31:37.613Z,24.44
2023-08-15T20:34:40.272Z,24.45
2023-08-15T20:37:42.167Z,24.48
2023-08-15T20:40:46.046Z,24.53
2023-08-15T20:43:48.996Z,24.48
2023-08-15T20:46:51.010Z,24.57
2023-08-15T20:49:53.117Z,24.55
2023-08-15T20:52:57.437Z,24.52
2023-08-15T20:55:59.355Z,24.49
2023-08-15T20:59:02.163Z,24.22
2023-08-15T21:02:04.762Z,24.22
2023-08-15T21:05:07.388Z,24.14
2023-08-15T21:08:09.234Z,24.15
2023-08-15T21:11:11.222Z,24.13
2023-08-15T21:14:13.089Z,24.10
2023-08-15T21:17:15.055Z,23.89
2023-08-15T21:20:16.905Z,23.89
2023-08-15T21:23:18.847Z,23.83
2023-08-15T21:26:24.220Z,23.79
2023-08-15T21:29:26.158Z,23.60
2023-08-15T21:32:28.308Z,23.52
2023-08-15T21:35:30.157Z,23.44
2023-08-15T21:38:32.380Z,23.42
2023-08-15T21:41:34.265Z,23.31
2023-08-15T21:44:36.073Z,23.23
2023-08-15T21:47:38.018Z,23.23
2023-08-15T21:50:41.071Z,23.15
2023-08-15T21:53:43.010Z,22.82
2023-08-15T21:56:44.888Z,22.76
2023-08-15T21:59:46.918Z,22.60
2023-08-15T22:02:49.342Z,22.58
2023-08-15T22:05:51.287Z,22.60
2023-08-15T22:08:53.266Z,22.65
2023-08-15T22:11:55.162Z,22.68
2023-08-15T22:14:57.107Z,22.84
2023-08-15T22:18:13.395Z,22.83
2023-08-15T22:21:20.924Z,22.86
2023-08-15T22:24:22.804Z,22.86
2023-08-15T22:27:24.764Z,22.90
2023-08-15T22:30:26.871Z,22.95
2023-08-15T22:33:28.803Z,22.91
2023-08-15T22:36:30.870Z,22.94
2023-08-15T22:39:32.723Z,22.91
2023-08-15T22:42:34.588Z,22.91
2023-08-15T22:45:36.952Z,22.92
2023-08-15T22:48:39.915Z,22.96
2023-08-15T22:51:41.951Z,22.89
2023-08-15T22:54:43.898Z,22.86
2023-08-15T22:57:45.804Z,22.88
2023-08-15T23:00:51.919Z,22.85
2023-08-15T23:03:53.852Z,22.84
2023-08-15T23:06:55.798Z,22.77
2023-08-15T23:09:57.834Z,22.76
2023-08-15T23:12:59.775Z,22.65
2023-08-15T23:16:01.707Z,22.59
2023-08-15T23:19:03.721Z,22.56
2023-08-15T23:22:05.696Z,22.54
2023-08-15T23:25:08.115Z,22.50
2023-08-15T23:28:10.143Z,22.54
2023-08-15T23:31:12.286Z,22.54
2023-08-15T23:34:14.546Z,22.53
2023-08-15T23:37:16.808Z,22.53
2023-08-15T23:40:19.133Z,22.45
2023-08-15T23:43:21.109Z,22.51
2023-08-15T23:46:27.138Z,22.70
2023-08-15T23:49:29.127Z,22.43
2023-08-15T23:52:30.989Z,22.15
2023-08-15T23:59:16.371Z,21.89
